Time;durP1;ratioP1;P1;durP2;ratioP2;P2;SDS_P1;SDS_P2;PMS_P1;PMS_P2;Temp;Humidity;BMP_temperature;BMP_pressure;BME280_temperature;BME280_humidity;BME280_pressure;Samples;Min_cycle;Max_cycle;Signal;HPM_P1;HPM_P2
2022/12/21 00:01:51;;;;;;;16.55;10.05;;;;;;;8.73;100.00;100849.19;4969090;28;20038;-78
2022/12/21 00:04:16;;;;;;;13.85;10.10;;;;;;;8.76;100.00;100850.69;4941985;28;20547;-79
2022/12/21 00:06:42;;;;;;;15.18;10.25;;;;;;;8.70;100.00;100857.25;4968102;28;20023;-80
2022/12/21 00:09:11;;;;;;;16.65;10.50;;;;;;;8.77;100.00;100857.47;4954715;28;20038;-78
2022/12/21 00:11:37;;;;;;;16.50;9.75;;;;;;;8.70;100.00;100859.81;4960404;28;20038;-79
2022/12/21 00:14:04;;;;;;;19.88;10.20;;;;;;;8.73;100.00;100861.31;4942821;28;20043;-79
2022/12/21 00:16:33;;;;;;;16.60;9.80;;;;;;;8.70;100.00;100859.00;4975849;28;20423;-77
2022/12/21 00:18:59;;;;;;;16.20;10.25;;;;;;;8.72;100.00;100859.66;4931711;28;20049;-79
2022/12/21 00:21:27;;;;;;;17.42;10.55;;;;;;;8.70;100.00;100851.22;4962211;28;20157;-80
2022/12/21 00:23:58;;;;;;;16.33;9.55;;;;;;;8.70;100.00;100856.41;4922162;28;20042;-81
2022/12/21 00:26:24;;;;;;;18.33;10.20;;;;;;;8.63;100.00;100861.34;4950799;28;20034;-79
2022/12/21 00:28:52;;;;;;;14.93;9.82;;;;;;;8.63;100.00;100861.34;4912476;28;20139;-79
2022/12/21 00:31:26;;;;;;;16.40;10.50;;;;;;;8.64;100.00;100862.16;4947909;28;20026;-80
2022/12/21 00:33:52;;;;;;;15.75;10.20;;;;;;;8.65;100.00;100866.38;4953741;28;20042;-79
2022/12/21 00:36:20;;;;;;;15.90;9.77;;;;;;;8.61;100.00;100865.00;4971194;28;20045;-80
2022/12/21 00:38:47;;;;;;;17.20;9.90;;;;;;;8.63;100.00;100855.38;4977386;28;20047;-79
2022/12/21 00:41:14;;;;;;;17.30;10.40;;;;;;;8.60;100.00;100861.63;4977017;28;20031;-80
2022/12/21 00:43:41;;;;;;;15.73;10.35;;;;;;;8.60;100.00;100859.03;4927985;28;20049;-79
2022/12/21 00:46:06;;;;;;;18.30;9.80;;;;;;;8.60;100.00;100865.97;4970121;28;20042;-78
2022/12/21 00:48:35;;;;;;;19.20;10.43;;;;;;;8.59;100.00;100870.34;4927020;28;20042;-80
2022/12/21 00:51:05;;;;;;;18.42;11.05;;;;;;;8.56;100.00;100861.06;4954414;28;20033;-79
2022/12/21 00:53:30;;;;;;;17.40;10.20;;;;;;;8.55;100.00;100868.97;4940812;28;20319;-79
2022/12/21 00:55:57;;;;;;;18.20;10.38;;;;;;;8.61;100.00;100870.19;4965669;28;20595;-79
2022/12/21 00:58:24;;;;;;;21.40;10.63;;;;;;;8.53;100.00;100874.31;4943862;28;20124;-79
2022/12/21 01:00:52;;;;;;;20.80;10.18;;;;;;;8.51;100.00;100870.22;4948587;28;20045;-79
2022/12/21 01:03:18;;;;;;;19.90;10.68;;;;;;;8.51;100.00;100868.47;4941129;28;20074;-79
2022/12/21 01:05:48;;;;;;;20.52;11.18;;;;;;;8.58;100.00;100879.84;4962782;28;20061;-78
2022/12/21 01:08:14;;;;;;;19.73;10.20;;;;;;;8.53;100.00;100884.66;4938114;28;20038;-78
2022/12/21 01:10:39;;;;;;;22.58;11.48;;;;;;;8.52;100.00;100884.78;4965507;28;20388;-79
2022/12/21 01:13:05;;;;;;;21.10;11.38;;;;;;;8.65;100.00;100881.88;4940988;28;20054;-79
2022/12/21 01:15:30;;;;;;;27.35;11.38;;;;;;;8.52;100.00;100885.59;4956030;28;20042;-79
2022/12/21 01:17:56;;;;;;;22.60;11.20;;;;;;;8.52;100.00;100889.94;4961325;28;20692;-79
2022/12/21 01:20:21;;;;;;;28.15;12.15;;;;;;;8.53;100.00;100894.97;4964848;28;20048;-80
2022/12/21 01:22:47;;;;;;;24.27;11.00;;;;;;;8.51;100.00;100898.63;4962118;28;20057;-78
2022/12/21 01:25:12;;;;;;;24.80;11.82;;;;;;;8.50;100.00;100902.19;4948452;28;20027;-79
2022/12/21 01:27:38;;;;;;;24.25;12.38;;;;;;;8.54;100.00;100906.13;4938124;28;20054;-79
2022/12/21 01:30:03;;;;;;;27.25;12.50;;;;;;;8.51;100.00;100907.22;4974836;28;20034;-79
2022/12/21 01:32:29;;;;;;;25.88;12.25;;;;;;;8.61;100.00;100908.94;4953802;28;20097;-79
2022/12/21 01:34:56;;;;;;;24.67;12.52;;;;;;;8.60;100.00;100904.75;4931180;28;20424;-78
2022/12/21 01:37:22;;;;;;;28.73;14.50;;;;;;;8.51;100.00;100904.66;4959814;28;20032;-79
2022/12/21 01:39:48;;;;;;;28.15;11.77;;;;;;;8.53;100.00;100905.31;4924547;28;20050;-79
2022/12/21 01:42:13;;;;;;;25.10;11.27;;;;;;;8.48;100.00;100899.75;4965870;28;20027;-78
2022/12/21 01:45:05;;;;;;;23.20;11.75;;;;;;;8.48;100.00;100897.16;4926347;28;20051;-79
2022/12/21 01:47:39;;;;;;;24.73;11.82;;;;;;;8.48;100.00;100904.09;4943116;28;20555;-79
2022/12/21 01:50:29;;;;;;;24.20;11.93;;;;;;;8.43;100.00;100891.59;4960798;28;20043;-79
2022/12/21 01:53:00;;;;;;;24.98;11.23;;;;;;;8.44;100.00;100894.97;4931239;28;20041;-79
2022/12/21 01:55:27;;;;;;;29.08;13.55;;;;;;;8.43;100.00;100896.75;4944776;28;20038;-79
2022/12/21 01:57:54;;;;;;;27.88;12.07;;;;;;;8.42;100.00;100891.72;4942266;28;20045;-78
2022/12/21 02:00:20;;;;;;;28.40;12.55;;;;;;;8.41;100.00;100895.25;4948454;28;20170;-78
2022/12/21 02:02:53;;;;;;;28.17;12.07;;;;;;;8.45;100.00;100891.44;4964164;28;20527;-79
2022/12/21 02:05:30;;;;;;;26.15;11.63;;;;;;;8.44;100.00;100889.81;4977918;28;20027;-79
2022/12/21 02:07:59;;;;;;;27.58;12.02;;;;;;;8.42;100.00;100894.31;4936228;28;20042;-79
2022/12/21 02:10:25;;;;;;;28.58;12.93;;;;;;;8.37;100.00;100897.28;4960515;28;20512;-79
2022/12/21 02:12:57;;;;;;;29.10;13.38;;;;;;;8.37;100.00;100902.47;4948889;28;20043;-78
2022/12/21 02:15:32;;;;;;;32.50;13.90;;;;;;;8.36;100.00;100895.66;4950544;28;20042;-79
2022/12/21 02:18:39;;;;;;;29.15;12.27;;;;;;;8.34;100.00;100898.41;4927559;28;21208;-79
2022/12/21 02:21:25;;;;;;;26.23;11.93;;;;;;;8.34;100.00;100894.97;4948045;28;20078;-79
2022/12/21 02:24:26;;;;;;;23.63;11.00;;;;;;;8.33;100.00;100904.50;4949686;28;20046;-79
2022/12/21 02:27:02;;;;;;;27.00;12.20;;;;;;;8.34;100.00;100908.72;4973967;28;20205;-80
2022/12/21 02:29:45;;;;;;;26.52;12.60;;;;;;;8.35;100.00;100912.94;4970458;28;20085;-78
2022/12/21 02:32:30;;;;;;;25.95;12.32;;;;;;;8.32;100.00;100913.19;4955114;28;20109;-79
2022/12/21 02:35:40;;;;;;;26.52;12.93;;;;;;;8.33;100.00;100919.19;4967190;28;20042;-80
2022/12/21 02:38:23;;;;;;;29.33;13.43;;;;;;;8.34;100.00;100916.47;4928488;28;20038;-80
2022/12/21 02:41:00;;;;;;;30.75;13.25;;;;;;;8.32;100.00;100920.13;4961163;28;20038;-80
2022/12/21 02:46:39;;;;;;;27.73;12.82;;;;;;;8.31;100.00;100913.34;4966663;28;20499;-78
2022/12/21 02:49:35;;;;;;;31.02;13.50;;;;;;;8.30;100.00;100916.88;4944422;28;20031;-79
2022/12/21 02:52:48;;;;;;;34.45;12.95;;;;;;;8.31;100.00;100905.59;4953406;28;20037;-80
2022/12/21 02:55:14;;;;;;;34.47;14.23;;;;;;;8.33;100.00;100901.09;4942873;28;20050;-80
2022/12/21 02:57:44;;;;;;;36.85;14.15;;;;;;;8.34;100.00;100903.56;4967289;28;20196;-79
2022/12/21 03:00:18;;;;;;;45.40;15.43;;;;;;;8.30;100.00;100901.38;4961473;28;20054;-78
2022/12/21 03:03:47;;;;;;;28.42;13.38;;;;;;;8.32;100.00;100900.28;4965808;28;21381;-80
2022/12/21 03:06:06;;;;;;;32.90;13.82;;;;;;;8.33;100.00;100901.91;4972061;28;20046;-79
2022/12/21 03:08:53;;;;;;;32.33;13.82;;;;;;;8.34;100.00;100898.41;4968977;28;20039;-79
2022/12/21 03:11:19;;;;;;;37.58;15.95;;;;;;;8.37;100.00;100892.13;4950330;28;20027;-79
2022/12/21 03:14:05;;;;;;;34.92;15.30;;;;;;;8.38;100.00;100886.81;4964534;28;20071;-79
2022/12/21 03:16:50;;;;;;;30.50;13.40;;;;;;;8.37;100.00;100894.72;4982616;28;20038;-78
2022/12/21 03:19:18;;;;;;;29.25;13.27;;;;;;;8.33;100.00;100899.34;4924319;28;20470;-80
2022/12/21 03:22:03;;;;;;;34.05;13.18;;;;;;;8.31;100.00;100893.50;4966802;28;20050;-79
2022/12/21 03:24:38;;;;;;;25.67;13.35;;;;;;;8.31;100.00;100887.53;4966031;28;20050;-78
2022/12/21 03:27:13;;;;;;;30.25;12.80;;;;;;;8.30;100.00;100883.28;4975882;28;20035;-79
2022/12/21 03:29:46;;;;;;;28.95;12.30;;;;;;;8.29;100.00;100886.84;4965151;28;20074;-79
2022/12/21 03:32:16;;;;;;;25.80;12.68;;;;;;;8.28;100.00;100878.25;4965722;28;20085;-79
2022/12/21 03:34:49;;;;;;;23.92;13.18;;;;;;;8.26;100.00;100879.34;4967692;28;20421;-85
2022/12/21 03:37:24;;;;;;;24.35;11.93;;;;;;;8.26;100.00;100875.00;4951677;28;20114;-81
2022/12/21 03:39:56;;;;;;;26.60;12.30;;;;;;;8.25;100.00;100872.56;4963701;28;20975;-79
2022/12/21 03:42:28;;;;;;;31.45;13.55;;;;;;;8.24;100.00;100869.16;4967829;28;20400;-79
2022/12/21 03:44:58;;;;;;;26.45;12.95;;;;;;;8.24;100.00;100865.78;4959582;28;20069;-79
2022/12/21 03:47:32;;;;;;;27.20;12.80;;;;;;;8.26;100.00;100861.28;4975987;28;20030;-78
2022/12/21 03:50:06;;;;;;;30.85;12.77;;;;;;;8.25;100.00;100870.81;4956349;28;20055;-82
2022/12/21 03:52:41;;;;;;;28.95;12.52;;;;;;;8.24;100.00;100858.81;4930966;28;20492;-80
2022/12/21 03:55:13;;;;;;;23.77;12.02;;;;;;;8.23;100.00;100853.78;4965452;28;20118;-78
2022/12/21 03:57:39;;;;;;;28.10;12.10;;;;;;;8.19;100.00;100846.34;4960792;28;20168;-79
2022/12/21 04:00:06;;;;;;;25.00;10.40;;;;;;;8.20;100.00;100852.31;4958528;28;20126;-80
2022/12/21 04:03:01;;;;;;;21.63;10.25;;;;;;;8.19;100.00;100850.66;4965551;28;20496;-80
2022/12/21 04:05:38;;;;;;;21.05;10.02;;;;;;;8.17;100.00;100847.41;4969833;28;20070;-79
2022/12/21 04:08:04;;;;;;;20.70;8.90;;;;;;;8.15;100.00;100854.50;4954559;28;20502;-79
2022/12/21 04:10:30;;;;;;;19.20;10.20;;;;;;;8.13;100.00;100859.78;4966742;28;20030;-79
2022/12/21 04:12:55;;;;;;;16.80;9.05;;;;;;;8.11;100.00;100855.72;4961637;28;20202;-79
2022/12/21 04:16:02;;;;;;;20.77;10.15;;;;;;;8.11;100.00;100846.19;4972969;28;20046;-80
2022/12/21 04:18:10;;;;;;;20.70;9.35;;;;;;;8.10;100.00;100841.16;4975166;28;20062;-80
2022/12/21 04:20:35;;;;;;;18.13;8.82;;;;;;;8.08;100.00;100843.06;4971586;28;20492;-79
2022/12/21 04:28:31;;;;;;;22.02;11.20;;;;;;;8.06;100.00;100843.25;4960693;28;20540;-78
2022/12/21 04:30:58;;;;;;;24.13;9.73;;;;;;;8.03;100.00;100833.19;4949299;28;20023;-79
2022/12/21 04:33:25;;;;;;;19.30;9.68;;;;;;;8.04;100.00;100849.47;4967422;28;20407;-80
2022/12/21 04:38:38;;;;;;;17.77;9.63;;;;;;;7.99;100.00;100845.53;4981476;28;20145;-81
2022/12/21 04:41:04;;;;;;;24.08;10.55;;;;;;;7.99;100.00;100844.75;4944930;28;20046;-80
2022/12/21 04:43:29;;;;;;;18.70;9.25;;;;;;;7.98;100.00;100843.09;4969472;28;20512;-80
2022/12/21 04:46:08;;;;;;;20.55;9.95;;;;;;;7.98;100.00;100840.50;4961731;28;20640;-80
2022/12/21 04:48:34;;;;;;;38.80;14.85;;;;;;;8.02;100.00;100843.63;4979002;28;20053;-80
2022/12/21 04:51:05;;;;;;;32.13;13.77;;;;;;;8.05;100.00;100849.34;4965585;28;20509;-81
2022/12/21 04:53:30;;;;;;;34.15;13.48;;;;;;;8.06;100.00;100856.16;4960846;28;20061;-81
2022/12/21 04:55:56;;;;;;;29.73;13.70;;;;;;;8.04;100.00;100854.63;4964029;28;20477;-81
2022/12/21 04:58:21;;;;;;;26.42;12.65;;;;;;;8.02;100.00;100851.38;4961564;28;20047;-81
2022/12/21 05:00:46;;;;;;;34.35;13.57;;;;;;;8.03;100.00;100853.84;4971827;28;20049;-80
2022/12/21 05:03:12;;;;;;;27.52;13.10;;;;;;;8.06;100.00;100847.56;4967979;28;20077;-80
2022/12/21 05:05:37;;;;;;;28.00;13.27;;;;;;;8.06;100.00;100847.56;4966199;28;20050;-81
2022/12/21 05:08:03;;;;;;;34.47;14.27;;;;;;;8.05;100.00;100846.75;4960347;28;20051;-80
2022/12/21 05:10:29;;;;;;;33.33;15.63;;;;;;;8.10;100.00;100834.25;4968537;28;20038;-80
2022/12/21 05:12:54;;;;;;;32.83;14.95;;;;;;;8.09;100.00;100839.56;4966736;28;20089;-80
2022/12/21 05:15:20;;;;;;;30.23;13.55;;;;;;;8.07;100.00;100849.22;4969451;28;20682;-80
2022/12/21 05:17:45;;;;;;;28.17;13.85;;;;;;;8.05;100.00;100836.44;4961830;28;20043;-81
2022/12/21 05:20:11;;;;;;;31.75;13.90;;;;;;;8.03;100.00;100830.59;4936972;28;20119;-81
2022/12/21 05:22:36;;;;;;;27.85;13.27;;;;;;;8.02;100.00;100836.69;4967059;28;20030;-81
2022/12/21 05:25:02;;;;;;;28.50;13.23;;;;;;;8.02;100.00;100820.41;4966730;28;20030;-80
2022/12/21 05:27:27;;;;;;;31.08;13.43;;;;;;;8.02;100.00;100834.13;4965246;28;20038;-79
2022/12/21 05:29:53;;;;;;;24.70;12.45;;;;;;;8.05;100.00;100830.47;4970921;28;20030;-79
2022/12/21 05:32:18;;;;;;;22.92;11.10;;;;;;;8.02;100.00;100833.31;4967900;28;20555;-80
2022/12/21 05:34:44;;;;;;;25.77;11.35;;;;;;;7.99;100.00;100837.00;4961882;28;20917;-80
2022/12/21 05:37:10;;;;;;;26.13;11.45;;;;;;;7.97;100.00;100828.56;4959657;28;20035;-79
2022/12/21 05:39:35;;;;;;;22.58;11.48;;;;;;;7.98;100.00;100827.59;4970793;28;20098;-79
2022/12/21 05:42:02;;;;;;;22.38;11.50;;;;;;;7.96;100.00;100838.06;4982031;28;20480;-80
2022/12/21 05:44:28;;;;;;;18.77;9.88;;;;;;;7.96;100.00;100822.56;4974689;28;20050;-80
2022/12/21 05:46:54;;;;;;;19.95;10.52;;;;;;;7.95;100.00;100823.53;4966753;28;20026;-80
2022/12/21 05:49:19;;;;;;;19.50;10.05;;;;;;;7.94;100.00;100826.25;4967736;28;20101;-80
2022/12/21 05:51:49;;;;;;;17.77;9.15;;;;;;;7.93;100.00;100829.78;4964502;28;20037;-80
2022/12/21 05:54:15;;;;;;;19.08;8.85;;;;;;;7.91;100.00;100821.34;4970515;28;20038;-79
2022/12/21 05:56:41;;;;;;;13.65;7.68;;;;;;;7.90;100.00;100827.50;4979934;28;20031;-80
2022/12/21 05:59:07;;;;;;;19.05;8.60;;;;;;;7.88;100.00;100822.44;4968612;28;20070;-79
2022/12/21 06:01:32;;;;;;;14.93;8.27;;;;;;;7.87;100.00;100820.81;4964476;28;20475;-80
2022/12/21 06:03:58;;;;;;;18.40;8.70;;;;;;;7.88;100.00;100827.63;4965826;28;20059;-80
2022/12/21 06:06:24;;;;;;;19.05;8.50;;;;;;;7.88;100.00;100819.06;4969271;28;20039;-81
2022/12/21 06:08:49;;;;;;;18.42;9.70;;;;;;;7.87;100.00;100825.16;4965549;28;20058;-81
2022/12/21 06:11:17;;;;;;;25.30;10.95;;;;;;;7.88;100.00;100826.81;4952476;28;20054;-80
2022/12/21 06:13:43;;;;;;;22.90;10.25;;;;;;;7.86;100.00;100826.94;4969506;28;20105;-80
2022/12/21 06:16:11;;;;;;;25.17;10.88;;;;;;;7.86;100.00;100826.13;4968172;28;20027;-81
2022/12/21 06:18:38;;;;;;;24.38;11.75;;;;;;;7.85;100.00;100822.72;4953305;28;20060;-81
2022/12/21 06:21:05;;;;;;;21.92;10.88;;;;;;;7.86;100.00;100820.97;4972810;28;20835;-80
2022/12/21 06:23:30;;;;;;;24.27;10.75;;;;;;;7.86;100.00;100824.38;4970538;28;20046;-82
2022/12/21 06:25:57;;;;;;;23.10;10.43;;;;;;;7.87;100.00;100822.59;4971996;28;20036;-80
2022/12/21 06:28:24;;;;;;;22.45;10.60;;;;;;;7.87;100.00;100838.06;4969708;28;20138;-82
2022/12/21 06:30:50;;;;;;;22.02;10.70;;;;;;;7.88;100.00;100831.97;4968138;28;20480;-81
2022/12/21 06:33:17;;;;;;;27.20;10.95;;;;;;;7.90;100.00;100817.16;4963539;28;20395;-82
2022/12/21 06:35:42;;;;;;;29.55;12.05;;;;;;;7.91;100.00;100829.94;4953003;28;20027;-83
2022/12/21 06:38:08;;;;;;;26.23;11.68;;;;;;;7.89;100.00;100824.09;4970100;28;20053;-82
2022/12/21 06:40:33;;;;;;;25.65;11.07;;;;;;;7.88;100.00;100824.22;4969944;28;20031;-82
2022/12/21 06:42:59;;;;;;;20.90;10.00;;;;;;;7.87;100.00;100820.00;4963747;28;20061;-81
2022/12/21 06:45:24;;;;;;;19.40;9.13;;;;;;;7.87;100.00;100817.41;4965282;28;20031;-80
2022/12/21 06:47:53;;;;;;;40.42;9.20;;;;;;;7.87;100.00;100813.06;4948082;28;20050;-80
2022/12/21 06:50:22;;;;;;;44.60;9.68;;;;;;;7.86;100.00;100826.13;4962261;28;20121;-80
2022/12/21 06:52:49;;;;;;;22.50;8.23;;;;;;;7.83;100.00;100826.41;4977509;28;20053;-81
2022/12/21 06:55:15;;;;;;;17.73;8.98;;;;;;;7.82;100.00;100830.75;4966166;28;20035;-80
2022/12/21 06:57:41;;;;;;;18.10;9.02;;;;;;;7.79;100.00;100839.56;4966541;28;20031;-80
2022/12/21 07:00:09;;;;;;;19.50;9.23;;;;;;;7.79;100.00;100841.34;4967774;28;20034;-79
2022/12/21 07:02:35;;;;;;;15.50;8.25;;;;;;;7.78;100.00;100832.78;4969688;28;20035;-82
2022/12/21 07:05:00;;;;;;;15.88;7.85;;;;;;;7.74;100.00;100838.34;4976644;28;20033;-79
2022/12/21 07:07:26;;;;;;;15.05;7.60;;;;;;;7.74;100.00;100840.94;4968167;28;20027;-80
2022/12/21 07:09:51;;;;;;;14.55;7.85;;;;;;;7.74;100.00;100843.50;4967562;28;20038;-80
2022/12/21 07:12:17;;;;;;;20.05;8.80;;;;;;;7.73;100.00;100839.31;4970793;28;20051;-80
2022/12/21 07:14:43;;;;;;;15.77;7.82;;;;;;;7.74;100.00;100839.19;4971187;28;20035;-79
2022/12/21 07:17:09;;;;;;;20.55;9.75;;;;;;;7.75;100.00;100834.84;4971426;28;20045;-80
2022/12/21 07:19:35;;;;;;;19.65;8.85;;;;;;;7.75;100.00;100832.25;4971233;28;20043;-79
2022/12/21 07:22:00;;;;;;;22.05;9.32;;;;;;;7.74;100.00;100839.19;4973077;28;20029;-80
2022/12/21 07:24:26;;;;;;;25.35;10.88;;;;;;;7.74;100.00;100844.34;4941986;28;22979;-78
2022/12/21 07:26:51;;;;;;;27.73;11.00;;;;;;;7.73;100.00;100845.28;4981831;28;20145;-79
2022/12/21 07:29:17;;;;;;;33.83;12.90;;;;;;;7.73;100.00;100839.31;4944873;28;20050;-79
2022/12/21 07:31:42;;;;;;;30.08;11.65;;;;;;;7.72;100.00;100850.59;4963683;28;20027;-81
2022/12/21 07:34:08;;;;;;;34.20;12.05;;;;;;;7.73;100.00;100853.03;4966104;28;20488;-80
2022/12/21 07:36:33;;;;;;;34.92;13.30;;;;;;;7.73;100.00;100862.56;4969384;28;20026;-80
2022/12/21 07:38:59;;;;;;;36.45;13.52;;;;;;;7.72;100.00;100856.59;4968599;28;20717;-81
2022/12/21 07:41:24;;;;;;;38.15;13.70;;;;;;;7.74;100.00;100862.41;4969463;28;20041;-80
2022/12/21 07:43:50;;;;;;;38.90;14.90;;;;;;;7.75;100.00;100868.38;4950126;28;20684;-80
2022/12/21 07:46:34;;;;;;;38.38;13.85;;;;;;;7.71;100.00;100849.78;4963603;28;20539;-79
2022/12/21 07:49:03;;;;;;;46.65;15.27;;;;;;;7.74;100.00;100854.69;4950622;28;20046;-79
2022/12/21 07:51:28;;;;;;;47.13;17.27;;;;;;;7.72;100.00;100863.50;4965882;28;20027;-81
2022/12/21 07:53:54;;;;;;;51.10;17.77;;;;;;;7.73;100.00;100865.13;4944993;28;20038;-79
2022/12/21 07:56:19;;;;;;;52.20;17.42;;;;;;;7.83;100.00;100875.44;4970798;28;20050;-79
2022/12/21 07:58:45;;;;;;;47.25;17.98;;;;;;;7.75;100.00;100873.56;4969929;28;20047;-81
2022/12/21 08:01:13;;;;;;;48.35;15.25;;;;;;;7.70;100.00;100855.06;4963635;28;20070;-80
2022/12/21 08:03:41;;;;;;;47.10;16.45;;;;;;;7.70;100.00;100862.81;4965596;28;20054;-80
2022/12/21 08:06:07;;;;;;;46.38;15.50;;;;;;;7.73;100.00;100867.72;4975933;28;20433;-79
2022/12/21 08:08:34;;;;;;;51.05;16.42;;;;;;;7.70;100.00;100861.03;4956468;28;20129;-81
2022/12/21 08:10:59;;;;;;;45.85;15.50;;;;;;;7.68;100.00;100860.34;4970400;28;20037;-79
2022/12/21 08:13:25;;;;;;;50.90;16.48;;;;;;;7.70;100.00;100867.97;4963632;28;20038;-80
2022/12/21 08:16:04;;;;;;;44.55;15.57;;;;;;;7.69;100.00;100866.34;4965896;28;20072;-82
2022/12/21 08:18:30;;;;;;;51.25;15.50;;;;;;;7.68;100.00;100859.56;4964578;28;20043;-80
2022/12/21 08:20:56;;;;;;;50.78;14.65;;;;;;;7.67;100.00;100857.94;4966755;28;20372;-80
2022/12/21 08:23:22;;;;;;;44.65;15.45;;;;;;;7.67;100.00;100866.50;4967729;28;20078;-79
2022/12/21 08:25:48;;;;;;;45.97;14.55;;;;;;;7.66;100.00;100862.25;4947814;28;20693;-81
2022/12/21 08:28:13;;;;;;;49.10;15.48;;;;;;;7.68;100.00;100860.34;4966238;28;20532;-80
2022/12/21 08:30:40;;;;;;;43.88;14.65;;;;;;;7.68;100.00;100867.28;4958770;28;20039;-80
2022/12/21 08:33:06;;;;;;;46.65;15.13;;;;;;;7.69;100.00;100866.34;4987025;28;20051;-81
2022/12/21 08:35:31;;;;;;;39.85;14.65;;;;;;;7.68;100.00;100868.09;4965551;28;20060;-84
2022/12/21 08:37:56;;;;;;;39.13;15.52;;;;;;;7.69;100.00;100874.09;4952407;28;20045;-83
2022/12/21 08:40:22;;;;;;;52.33;15.20;;;;;;;7.71;100.00;100885.91;4969931;28;20035;-83
2022/12/21 08:42:47;;;;;;;51.13;15.23;;;;;;;7.71;100.00;100900.59;4981464;28;20130;-83
2022/12/21 08:45:13;;;;;;;41.17;16.30;;;;;;;7.89;100.00;100905.88;4973048;28;20077;-83
2022/12/21 08:47:39;;;;;;;50.05;17.40;;;;;;;7.77;100.00;100907.78;4967329;28;20089;-83
2022/12/21 08:50:05;;;;;;;47.97;15.63;;;;;;;7.69;100.00;100894.75;4958901;28;20034;-84
2022/12/21 08:52:31;;;;;;;43.42;15.13;;;;;;;7.68;100.00;100896.50;4958432;28;20493;-82
2022/12/21 08:54:57;;;;;;;44.80;15.82;;;;;;;7.65;100.00;100901.94;4980462;28;20022;-82
2022/12/21 08:57:23;;;;;;;41.20;16.15;;;;;;;7.69;100.00;100903.31;4965905;28;20092;-82
2022/12/21 08:59:49;;;;;;;45.75;16.15;;;;;;;7.71;100.00;100887.69;4965127;28;20137;-82
2022/12/21 09:02:14;;;;;;;38.88;15.45;;;;;;;7.75;100.00;100883.88;4969588;28;20054;-82
2022/12/21 09:04:40;;;;;;;40.20;15.32;;;;;;;7.79;100.00;100886.03;4967012;28;20664;-80
2022/12/21 09:07:06;;;;;;;41.80;15.52;;;;;;;7.79;100.00;100887.81;4964431;28;20540;-81
2022/12/21 09:09:31;;;;;;;36.17;14.48;;;;;;;7.82;100.00;100887.56;4965687;28;20057;-81
2022/12/21 09:11:57;;;;;;;34.03;14.07;;;;;;;7.83;100.00;100896.09;4959312;28;20029;-81
2022/12/21 09:14:22;;;;;;;43.72;14.32;;;;;;;7.82;100.00;100892.72;4977730;28;20043;-80
2022/12/21 09:16:48;;;;;;;33.55;13.77;;;;;;;7.81;100.00;100885.91;4974116;28;20078;-81
2022/12/21 09:19:13;;;;;;;35.28;14.45;;;;;;;7.85;100.00;100889.84;4941684;28;20077;-80
2022/12/21 09:21:39;;;;;;;36.55;14.82;;;;;;;7.82;100.00;100894.47;4952433;28;20019;-80
2022/12/21 09:24:05;;;;;;;30.58;13.20;;;;;;;7.83;100.00;100904.66;4955777;28;20053;-80
2022/12/21 09:26:31;;;;;;;41.33;16.15;;;;;;;7.86;100.00;100912.16;4970407;28;20078;-80
2022/12/21 09:28:56;;;;;;;42.72;16.23;;;;;;;7.89;100.00;100914.47;4953142;28;20049;-80
2022/12/21 09:31:22;;;;;;;44.63;16.25;;;;;;;7.93;100.00;100912.41;4970565;28;20031;-81
2022/12/21 09:33:47;;;;;;;47.45;17.90;;;;;;;7.85;100.00;100901.94;4945521;28;20477;-81
2022/12/21 09:36:13;;;;;;;41.25;15.55;;;;;;;7.79;100.00;100892.97;4973230;28;20053;-79
2022/12/21 09:38:40;;;;;;;38.45;15.77;;;;;;;7.91;100.00;100897.06;4930508;28;20734;-80
2022/12/21 09:41:05;;;;;;;37.20;15.20;;;;;;;7.83;100.00;100899.50;4971873;28;20031;-79
2022/12/21 09:43:50;;;;;;;36.42;14.98;;;;;;;7.93;100.00;100907.25;4947013;28;20162;-80
2022/12/21 09:46:17;;;;;;;42.55;15.82;;;;;;;8.06;100.00;100906.97;4968438;28;20529;-81
2022/12/21 09:48:54;;;;;;;45.15;16.60;;;;;;;8.06;100.00;100902.63;4946407;28;20050;-79
2022/12/21 09:51:23;;;;;;;35.83;15.55;;;;;;;8.04;100.00;100907.09;4969554;28;20077;-79
2022/12/21 09:53:59;;;;;;;39.53;15.82;;;;;;;8.08;100.00;100903.31;4950628;28;20057;-79
2022/12/21 09:56:26;;;;;;;36.25;15.68;;;;;;;8.11;100.00;100899.63;4970110;28;20425;-80
2022/12/21 09:58:53;;;;;;;42.80;16.73;;;;;;;8.18;100.00;100895.56;4987436;28;20093;-79
2022/12/21 10:01:45;;;;;;;41.45;16.92;;;;;;;8.16;100.00;100906.03;4969599;28;20030;-81
2022/12/21 10:04:10;;;;;;;38.95;15.48;;;;;;;8.09;100.00;100902.34;4969789;28;20051;-79
2022/12/21 10:07:04;;;;;;;37.03;15.40;;;;;;;8.06;100.00;100906.97;4956989;28;20200;-80
2022/12/21 10:09:29;;;;;;;;;;;;;;;8.13;100.00;100905.47;4948913;28;20092;-80
2022/12/21 10:12:04;;;;;;;41.35;16.75;;;;;;;8.05;100.00;100900.19;4983888;28;19918;-80
2022/12/21 10:14:39;;;;;;;41.95;16.33;;;;;;;7.96;100.00;100894.88;4967083;28;20057;-80
2022/12/21 10:17:23;;;;;;;44.10;16.33;;;;;;;7.96;100.00;100905.19;4946759;28;20623;-80
2022/12/21 10:20:00;;;;;;;32.67;15.50;;;;;;;7.93;100.00;100902.06;4947687;28;20093;-80
2022/12/21 10:22:33;;;;;;;34.70;15.15;;;;;;;7.88;100.00;100901.69;4978740;28;20043;-80
2022/12/21 10:25:02;;;;;;;36.38;15.13;;;;;;;7.90;100.00;100907.53;4977917;28;20082;-80
2022/12/21 10:27:33;;;;;;;33.58;12.73;;;;;;;8.06;100.00;100906.97;4982545;28;20046;-79
2022/12/21 10:29:59;;;;;;;32.03;11.43;;;;;;;7.90;100.00;100899.78;4982001;28;20038;-79
2022/12/21 10:32:31;;;;;;;26.90;11.40;;;;;;;7.84;100.00;100903.72;4970041;28;20026;-79
2022/12/21 10:35:10;;;;;;;28.38;10.30;;;;;;;7.87;100.00;100900.03;4969186;28;20129;-80
2022/12/21 10:37:38;;;;;;;29.17;11.88;;;;;;;7.98;100.00;100903.28;4971255;28;20050;-79
2022/12/21 10:40:04;;;;;;;32.90;13.13;;;;;;;7.94;100.00;100894.19;4956100;28;20037;-80
2022/12/21 10:42:37;;;;;;;29.55;12.57;;;;;;;7.91;100.00;100897.06;4960945;28;20035;-79
2022/12/21 10:45:04;;;;;;;26.52;11.65;;;;;;;7.98;100.00;100892.16;4973671;28;20415;-80
2022/12/21 10:47:30;;;;;;;35.47;14.05;;;;;;;8.01;100.00;100889.31;4974525;28;20090;-80
2022/12/21 10:50:06;;;;;;;28.23;11.25;;;;;;;8.07;100.00;100886.19;4970938;28;20702;-80
2022/12/21 10:52:59;;;;;;;21.48;9.63;;;;;;;8.03;100.00;100886.59;4964890;28;20035;-79
2022/12/21 10:55:35;;;;;;;26.50;8.88;;;;;;;8.01;100.00;100883.34;4964148;28;20039;-80
2022/12/21 10:58:01;;;;;;;22.75;8.35;;;;;;;8.13;100.00;100877.06;4971990;28;20049;-80
2022/12/21 11:00:29;;;;;;;23.98;7.97;;;;;;;8.06;100.00;100884.56;4971880;28;20142;-80
2022/12/21 11:03:00;;;;;;;18.98;8.02;;;;;;;8.24;100.00;100876.91;4972264;28;20424;-80
2022/12/21 11:05:27;;;;;;;27.25;7.68;;;;;;;8.27;100.00;100873.22;4966412;28;20038;-79
2022/12/21 11:07:53;;;;;;;19.25;7.35;;;;;;;8.25;100.00;100877.72;4943293;28;20047;-79
2022/12/21 11:10:27;;;;;;;19.77;7.80;;;;;;;8.36;100.00;100872.38;4983218;28;20121;-80
2022/12/21 11:12:52;;;;;;;23.60;8.60;;;;;;;8.39;100.00;100861.78;4982765;28;20467;-80
2022/12/21 11:15:23;;;;;;;24.83;8.27;;;;;;;8.45;100.00;100866.41;4972410;28;20034;-79
2022/12/21 11:17:49;;;;;;;21.33;7.28;;;;;;;8.45;100.00;100863.84;4970320;28;20039;-79
2022/12/21 11:20:19;;;;;;;31.40;9.90;;;;;;;8.49;100.00;100864.38;4972257;28;20046;-79
2022/12/21 11:22:47;;;;;;;20.73;7.82;;;;;;;8.55;100.00;100864.63;4969936;28;20030;-79
2022/12/21 11:25:16;;;;;;;19.48;7.82;;;;;;;8.55;100.00;100859.47;4966261;28;20026;-78
2022/12/21 11:27:45;;;;;;;26.25;8.73;;;;;;;8.60;100.00;100853.84;4968022;28;20253;-79
2022/12/21 11:30:19;;;;;;;24.20;8.45;;;;;;;8.57;100.00;100864.50;4948566;28;20438;-79
2022/12/21 11:32:48;;;;;;;25.55;8.07;;;;;;;8.59;100.00;100857.41;4964336;28;20022;-78
2022/12/21 11:35:25;;;;;;;23.20;9.55;;;;;;;8.52;100.00;100858.94;4957561;28;20117;-80